TimeCEST,TemperatureF,Dew PointF,Humidity,Sea Level PressureIn,VisibilityMPH,Wind Direction,Wind SpeedMPH,Gust SpeedMPH,PrecipitationIn,Events,Conditions,WindDirDegrees,DateUTC
1:55 AM,44.6,39.2,81,30.18,-9999.0,WNW,3.5,-,N/A,,Clear,300,2012-10-02 23:55:00
2:00 AM,44,40,80,,9,WNW,3.5,,,,,300,2012-10-03 00:00:00
4:55 AM,42.8,39.2,87,30.15,0.7,NNW,3.5,-,N/A,,Mist,330,2012-10-03 02:55:00
5:00 AM,42,39,85,,1,NNW,3.5,,,,Mist,330,2012-10-03 03:00:00
5:55 AM,42.8,39.2,87,30.15,0.7,NNW,4.6,-,N/A,,Mist,330,2012-10-03 03:55:00
7:55 AM,41.0,37.4,87,30.15,-9999.0,NNE,1.2,-,N/A,,Clear,20,2012-10-03 05:55:00
8:00 AM,41,38,84,,16,NNE,1.2,,,,,20,2012-10-03 06:00:00
8:55 AM,42.8,37.4,81,30.15,-9999.0,SSW,2.3,-,N/A,,Clear,200,2012-10-03 06:55:00
9:55 AM,44.6,41.0,87,30.15,-9999.0,WNW,2.3,-,N/A,,Clear,290,2012-10-03 07:55:00
10:55 AM,46.4,39.2,76,30.15,6.2,SW,2.3,-,N/A,,Partly Cloudy,230,2012-10-03 08:55:00
11:00 AM,46,40,72,,1,SW,2.3,,,,Mist,230,2012-10-03 09:00:00
11:55 AM,46.4,42.8,87,30.18,6.2,ESE,11.5,-,N/A,,Partly Cloudy,120,2012-10-03 09:55:00
12:55 PM,48.2,41.0,76,30.18,6.2,SE,10.4,-,N/A,,Partly Cloudy,130,2012-10-03 10:55:00
1:55 PM,48.2,41.0,76,30.18,6.2,SE,10.4,-,N/A,,Scattered Clouds,130,2012-10-03 11:55:00
2:00 PM,49,42,69,,11,SE,10.4,,,,Partly Cloudy,130,2012-10-03 12:00:00
3:55 PM,46.4,42.8,87,30.18,6.2,SE,10.4,-,N/A,,Mostly Cloudy,130,2012-10-03 13:55:00
4:55 PM,46.4,42.8,87,30.15,6.2,SE,12.7,-,N/A,,Scattered Clouds,130,2012-10-03 14:55:00
5:00 PM,46,43,86,,9,SE,12.7,,,,Partly Cloudy,130,2012-10-03 15:00:00
5:55 PM,46.4,42.8,87,30.15,6.2,ESE,11.5,-,N/A,,Scattered Clouds,120,2012-10-03 15:55:00
6:55 PM,44.6,42.8,93,30.15,0.1,ESE,9.2,-,N/A,Fog,Fog,120,2012-10-03 16:55:00
7:55 PM,44.6,41.0,87,30.15,0.1,ESE,10.4,-,N/A,Fog,Fog,120,2012-10-03 17:55:00
8:00 PM,44,41,87,,0,ESE,10.4,,,Fog,Heavy Fog,120,2012-10-03 18:00:00
11:00 PM,43,39,81,,0,East,8.1,,,Fog,Heavy Fog,90,2012-10-03 21:00:00